Terminal Aerodrome Forecast
Issued by NWS

Current Version | Previous Version | Graphics & Text | Print | Product List | Glossary On
Versions: 1 2 3 4 5 6 7 8 9 10 11 12 13 14 15 16 17 18 19 20 21 22 23 24 25 26 27 28 29 30 31 32 33 34 35 36 37 38 39 40 41 42 43
000
FTUS41 KRNK 021129
TAFLWB
TAF
KLWB 021129Z 0212/0312 00000KT 1SM BR OVC002
      TEMPO 0212/0213 1/4SM FG OVC001
     FM021430 27003KT P6SM SCT015
     FM030800 00000KT 3SM BR BKN045=

USA.gov is the U.S. government's official web portal to all federal, state and local government web resources and services.